Time;durP1;ratioP1;P1;durP2;ratioP2;P2;SDS_P1;SDS_P2;PMS_P1;PMS_P2;Temp;Humidity;BMP_temperature;BMP_pressure;BME280_temperature;BME280_humidity;BME280_pressure;Samples;Min_cycle;Max_cycle;Signal;HPM_P1;HPM_P2
2021/09/27 00:00:46;;;;;;;15.10;12.80;;;14.90;99.90;;;;;;5062969;28;20461;-89
2021/09/27 00:03:13;;;;;;;13.73;12.33;;;;;;;;;;5061723;28;20453;-90
2021/09/27 00:05:40;;;;;;;14.30;12.60;;;;;;;;;;5060140;28;20449;-90
2021/09/27 00:08:08;;;;;;;12.70;11.33;;;;;;;;;;5060287;28;20508;-89
2021/09/27 00:10:38;;;;;;;16.23;13.57;;;14.80;99.90;;;;;;5062638;28;20841;-89
2021/09/27 00:13:05;;;;;;;14.93;13.33;;;;;;;;;;5064034;28;20451;-89
2021/09/27 00:15:36;;;;;;;15.50;13.90;;;15.00;99.90;;;;;;5057384;28;20946;-90
2021/09/27 00:18:08;;;;;;;19.10;14.47;;;15.00;99.90;;;;;;5052878;28;20439;-91
2021/09/27 00:20:35;;;;;;;13.30;11.50;;;;;;;;;;5060781;28;20450;-91
2021/09/27 00:23:02;;;;;;;17.40;14.40;;;;;;;;;;5056902;28;20450;-89
2021/09/27 00:25:29;;;;;;;16.50;14.40;;;;;;;;;;5060513;28;20453;-90
2021/09/27 00:27:57;;;;;;;16.40;14.10;;;;;;;;;;5057432;28;20476;-89
2021/09/27 00:30:24;;;;;;;16.60;14.50;;;;;;;;;;5060285;28;21008;-90
2021/09/27 00:32:52;;;;;;;15.20;13.10;;;15.10;99.90;;;;;;5070205;28;20457;-89
2021/09/27 00:35:27;;;;;;;17.87;14.77;;;15.10;99.90;;;;;;5059622;28;20512;-89
2021/09/27 00:37:54;;;;;;;16.30;13.70;;;;;;;;;;5058679;28;20449;-91
2021/09/27 00:40:25;;;;;;;15.37;13.77;;;15.00;99.90;;;;;;5057796;28;20445;-90
2021/09/27 00:42:53;;;;;;;14.83;13.23;;;;;;;;;;5059589;28;20446;-91
2021/09/27 00:45:22;;;;;;;14.20;12.13;;;14.90;99.90;;;;;;5060959;28;20476;-89
2021/09/27 00:47:49;;;;;;;14.63;13.00;;;;;;;;;;5060831;28;20438;-88
2021/09/27 00:50:19;;;;;;;14.60;13.00;;;14.90;99.90;;;;;;5057338;28;20451;-88
2021/09/27 00:52:48;;;;;;;14.67;12.30;;;15.00;99.90;;;;;;5058199;28;20920;-91
2021/09/27 00:55:19;;;;;;;12.73;11.43;;;15.00;99.90;;;;;;5060935;28;20466;-90
2021/09/27 00:57:47;;;;;;;14.50;11.93;;;;;;;;;;5060139;28;20464;-90
2021/09/27 01:00:18;;;;;;;14.33;11.73;;;15.00;99.90;;;;;;5058886;28;20447;-89
2021/09/27 01:02:45;;;;;;;14.47;12.00;;;;;;;;;;5049504;28;20454;-89
2021/09/27 01:05:15;;;;;;;14.17;12.23;;;15.10;99.90;;;;;;5058653;28;20458;-90
2021/09/27 01:07:49;;;;;;;18.00;11.60;;;15.10;99.90;;;;;;5061094;28;20957;-92
2021/09/27 01:10:32;;;;;;;12.60;11.07;;;15.20;99.90;;;;;;5059576;28;20815;-90
2021/09/27 01:13:27;;;;;;;13.33;11.00;;;15.20;99.90;;;;;;5059306;28;20445;-90
2021/09/27 01:16:00;;;;;;;10.60;8.87;;;15.20;99.90;;;;;;5063946;28;20496;-93
2021/09/27 01:18:39;;;;;;;13.67;11.63;;;15.30;99.90;;;;;;5063193;28;20453;-93
2021/09/27 01:21:37;;;;;;;14.37;10.93;;;15.30;99.90;;;;;;5057804;28;20453;-90
2021/09/27 01:24:41;;;;;;;12.63;11.10;;;15.30;99.90;;;;;;5055115;28;20443;-90
2021/09/27 01:27:40;;;;;;;13.50;10.57;;;15.30;99.90;;;;;;5023193;28;20455;-92
2021/09/27 01:30:29;;;;;;;12.53;11.23;;;15.30;99.90;;;;;;5062637;28;20450;-90
2021/09/27 01:33:00;;;;;;;14.80;11.27;;;15.30;99.90;;;;;;5003972;28;20446;-92
2021/09/27 01:35:41;;;;;;;13.50;12.10;;;15.40;99.90;;;;;;5062136;28;20443;-90
2021/09/27 01:38:15;;;;;;;14.33;10.40;;;15.30;99.90;;;;;;5057699;28;20446;-88
2021/09/27 01:40:50;;;;;;;14.93;11.47;;;15.30;99.90;;;;;;5056950;28;20968;-90
2021/09/27 01:43:22;;;;;;;12.37;11.07;;;15.30;99.90;;;;;;5058533;28;20442;-88
2021/09/27 01:45:58;;;;;;;10.63;9.50;;;15.30;99.90;;;;;;5056050;28;20449;-89
2021/09/27 01:48:31;;;;;;;15.23;12.40;;;15.30;99.90;;;;;;5060625;28;20446;-91
2021/09/27 01:51:01;;;;;;;12.07;10.83;;;15.20;99.90;;;;;;5062158;28;20480;-92
2021/09/27 01:53:33;;;;;;;13.67;11.80;;;15.30;99.90;;;;;;5057297;28;20819;-95
2021/09/27 01:56:05;;;;;;;15.00;11.40;;;16.80;99.90;;;;;;5062184;28;20478;-90
2021/09/27 01:58:44;;;;;;;14.57;11.77;;;15.30;99.90;;;;;;5062240;28;20537;-91
2021/09/27 02:01:19;;;;;;;13.93;10.17;;;15.30;99.90;;;;;;5062764;28;20453;-89
2021/09/27 02:03:54;;;;;;;12.13;10.97;;;15.30;99.90;;;;;;5072211;28;20505;-88
2021/09/27 02:06:26;;;;;;;12.23;10.93;;;15.50;99.90;;;;;;5058655;28;20456;-92
2021/09/27 02:08:59;;;;;;;12.60;11.30;;;15.30;99.90;;;;;;5059945;28;20447;-92
2021/09/27 02:11:28;;;;;;;11.33;10.13;;;15.20;99.90;;;;;;5053933;28;20478;-93
2021/09/27 02:14:03;;;;;;;12.37;11.17;;;15.10;99.90;;;;;;5060002;28;20451;-92
2021/09/27 02:16:38;;;;;;;11.63;10.53;;;15.10;99.90;;;;;;5067012;28;20470;-89
2021/09/27 02:19:12;;;;;;;13.07;11.27;;;15.00;99.90;;;;;;5067660;28;20442;-91
2021/09/27 02:21:45;;;;;;;10.93;9.70;;;15.00;99.90;;;;;;5062595;28;20442;-91
2021/09/27 02:24:17;;;;;;;11.80;10.60;;;15.00;99.90;;;;;;5066129;28;20457;-88
2021/09/27 02:26:46;;;;;;;14.77;11.40;;;15.00;99.90;;;;;;5069379;28;20454;-89
2021/09/27 02:29:14;;;;;;;11.80;10.50;;;;;;;;;;5067762;28;20446;-89
2021/09/27 02:31:48;;;;;;;11.53;10.43;;;14.90;99.90;;;;;;5060886;28;20481;-89
2021/09/27 02:34:24;;;;;;;13.50;11.33;;;15.00;99.90;;;;;;5056288;28;20949;-95
2021/09/27 02:36:57;;;;;;;12.47;11.17;;;15.00;99.90;;;;;;5057066;28;20454;-92
2021/09/27 02:39:29;;;;;;;11.77;10.33;;;15.20;99.90;;;;;;5060747;28;20446;-90
2021/09/27 02:42:01;;;;;;;12.03;10.67;;;15.20;99.90;;;;;;5059428;28;20450;-90
2021/09/27 02:44:29;;;;;;;12.80;11.43;;;;;;;;;;5055773;28;20450;-91
2021/09/27 02:46:57;;;;;;;13.87;12.20;;;15.20;99.90;;;;;;5054454;28;20447;-91
2021/09/27 02:49:28;;;;;;;12.77;11.37;;;15.20;99.90;;;;;;5057718;28;20808;-92
2021/09/27 02:51:58;;;;;;;12.97;10.90;;;15.20;99.90;;;;;;5058815;28;20548;-91
2021/09/27 02:54:33;;;;;;;12.67;10.83;;;15.20;99.90;;;;;;5055893;28;20454;-91
2021/09/27 02:57:09;;;;;;;12.77;10.97;;;15.20;99.90;;;;;;5058649;28;20474;-90
2021/09/27 02:59:46;;;;;;;12.17;10.87;;;15.20;99.90;;;;;;5055997;28;20450;-91
2021/09/27 03:02:21;;;;;;;13.57;11.80;;;15.20;99.90;;;;;;5051747;28;20442;-87
2021/09/27 03:05:06;;;;;;;12.20;9.97;;;15.20;99.90;;;;;;5068392;28;20453;-90
2021/09/27 03:07:49;;;;;;;12.23;10.80;;;15.20;99.90;;;;;;5061997;28;20450;-90
2021/09/27 03:10:26;;;;;;;12.53;10.93;;;15.20;99.90;;;;;;5058936;28;20926;-91
2021/09/27 03:12:59;;;;;;;15.80;11.73;;;15.20;99.90;;;;;;5060206;28;20516;-90
2021/09/27 03:15:53;;;;;;;17.30;10.77;;;15.30;99.90;;;;;;5058454;28;20462;-90
2021/09/27 03:18:33;;;;;;;13.17;11.30;;;15.30;99.90;;;;;;5057413;28;20525;-94
2021/09/27 03:21:15;;;;;;;13.40;11.57;;;15.30;99.90;;;;;;5062291;28;20454;-93
2021/09/27 03:23:53;;;;;;;13.90;12.03;;;15.30;99.90;;;;;;5056242;28;20447;-90
2021/09/27 03:26:31;;;;;;;13.70;11.57;;;15.30;99.90;;;;;;5058672;28;20461;-91
2021/09/27 03:29:04;;;;;;;13.87;12.37;;;15.20;99.90;;;;;;5058173;28;20469;-91
2021/09/27 03:31:53;;;;;;;13.30;11.10;;;15.20;99.90;;;;;;5061536;28;20490;-92
2021/09/27 03:34:29;;;;;;;14.37;11.33;;;15.20;99.90;;;;;;5069685;28;20454;-88
2021/09/27 03:37:14;;;;;;;13.27;11.40;;;15.20;99.90;;;;;;5062706;28;20450;-92
2021/09/27 03:39:58;;;;;;;13.20;11.37;;;15.20;99.90;;;;;;5056369;28;20454;-92
2021/09/27 03:42:31;;;;;;;13.50;11.93;;;15.10;99.90;;;;;;5057148;28;20443;-89
2021/09/27 03:45:05;;;;;;;14.90;11.67;;;15.10;99.90;;;;;;5056373;28;20795;-92
2021/09/27 03:47:44;;;;;;;14.60;11.70;;;15.10;99.90;;;;;;5059202;28;20453;-92
2021/09/27 03:50:17;;;;;;;13.60;11.77;;;15.10;99.90;;;;;;5060107;28;20435;-93
2021/09/27 03:52:49;;;;;;;13.30;12.00;;;15.10;99.90;;;;;;5061437;28;20497;-93
2021/09/27 03:55:22;;;;;;;15.63;11.30;;;15.00;99.90;;;;;;5060637;28;20439;-92
2021/09/27 03:57:55;;;;;;;14.20;10.60;;;15.00;99.90;;;;;;5061178;28;20446;-90
2021/09/27 04:00:26;;;;;;;14.10;11.43;;;15.10;99.90;;;;;;5062562;28;20469;-93
2021/09/27 04:02:59;;;;;;;14.40;12.37;;;15.00;99.90;;;;;;5060630;28;20451;-91
2021/09/27 04:05:39;;;;;;;16.00;12.10;;;15.00;99.90;;;;;;5061994;28;20447;-90
2021/09/27 04:08:14;;;;;;;16.63;11.97;;;15.00;99.90;;;;;;5061916;28;20811;-91
2021/09/27 04:10:59;;;;;;;14.03;11.53;;;15.00;99.90;;;;;;5060999;28;20450;-93
2021/09/27 04:13:36;;;;;;;16.83;12.07;;;15.00;99.90;;;;;;5064629;28;20494;-91
2021/09/27 04:16:15;;;;;;;13.00;10.73;;;15.00;99.90;;;;;;5060813;28;20478;-93
2021/09/27 04:18:52;;;;;;;22.37;12.80;;;15.00;99.90;;;;;;5062083;28;20446;-93
2021/09/27 04:21:24;;;;;;;13.60;11.27;;;14.90;99.90;;;;;;5063451;28;20529;-91
2021/09/27 04:24:08;;;;;;;15.80;12.63;;;14.80;99.90;;;;;;5065498;23;20795;-92
2021/09/27 04:26:47;;;;;;;12.70;10.90;;;15.00;99.90;;;;;;5044776;28;20462;-93
2021/09/27 04:29:52;;;;;;;14.77;11.93;;;14.90;99.90;;;;;;5043035;28;20817;-93
2021/09/27 04:32:30;;;;;;;14.23;12.73;;;14.80;99.90;;;;;;5042489;28;20934;-92
2021/09/27 04:35:05;;;;;;;13.73;11.80;;;14.70;99.90;;;;;;5039620;28;20454;-94
2021/09/27 04:37:32;;;;;;;14.70;11.80;;;14.60;99.90;;;;;;5040042;28;20529;-93
2021/09/27 04:40:00;;;;;;;11.40;10.20;;;14.40;99.90;;;;;;5041598;28;20530;-92
2021/09/27 04:42:56;;;;;;;13.50;12.10;;;14.30;99.90;;;;;;5042546;28;20458;-92
2021/09/27 04:45:38;;;;;;;13.60;11.60;;;14.20;99.90;;;;;;5043067;28;20448;-88
2021/09/27 04:48:17;;;;;;;13.40;11.10;;;14.10;99.90;;;;;;5042700;28;20450;-91
2021/09/27 04:50:54;;;;;;;13.20;11.80;;;14.20;99.90;;;;;;5039509;28;20462;-92
2021/09/27 04:53:35;;;;;;;15.73;11.77;;;14.20;99.90;;;;;;5047193;28;20490;-93
2021/09/27 04:56:18;;;;;;;15.60;12.83;;;14.30;99.90;;;;;;5044350;28;20489;-89
2021/09/27 04:58:56;;;;;;;13.90;12.23;;;14.20;99.90;;;;;;5047659;28;20452;-91
2021/09/27 05:01:52;;;;;;;12.93;11.17;;;14.20;99.90;;;;;;5044585;28;20439;-89
2021/09/27 05:04:49;;;;;;;14.37;12.43;;;14.10;99.90;;;;;;5051726;28;20444;-89
2021/09/27 05:07:52;;;;;;;14.63;11.63;;;13.90;99.90;;;;;;5039044;28;20820;-88
2021/09/27 05:10:42;;;;;;;15.13;11.60;;;13.80;99.90;;;;;;5038328;28;20451;-92
2021/09/27 05:13:30;;;;;;;15.57;11.53;;;13.80;99.90;;;;;;5038863;28;20491;-92
2021/09/27 05:16:09;;;;;;;15.30;11.67;;;13.60;99.90;;;;;;5016112;28;20452;-91
2021/09/27 05:19:19;;;;;;;20.53;12.03;;;13.50;99.90;;;;;;5016499;28;20461;-91
2021/09/27 05:22:14;;;;;;;14.60;11.70;;;13.40;99.90;;;;;;5029073;28;20455;-88
2021/09/27 05:24:55;;;;;;;14.13;11.70;;;13.40;99.90;;;;;;4997660;28;20480;-89
2021/09/27 05:27:52;;;;;;;13.60;11.43;;;13.40;99.90;;;;;;5012411;28;20444;-87
2021/09/27 05:30:30;;;;;;;13.70;11.87;;;13.40;99.90;;;;;;5015759;28;20463;-89
2021/09/27 05:33:05;;;;;;;14.93;12.37;;;13.30;99.90;;;;;;5019454;28;20488;-89
2021/09/27 05:35:48;;;;;;;12.33;11.00;;;13.30;99.90;;;;;;5023359;28;20463;-92
2021/09/27 05:38:27;;;;;;;14.63;11.80;;;13.30;99.90;;;;;;5016883;28;20452;-90
2021/09/27 05:41:07;;;;;;;13.27;11.67;;;13.30;99.90;;;;;;5014250;28;20456;-91
2021/09/27 05:43:53;;;;;;;13.13;11.40;;;13.40;99.90;;;;;;5009735;28;20452;-93
2021/09/27 05:46:39;;;;;;;14.90;12.47;;;13.50;99.90;;;;;;5011344;28;20959;-89
2021/09/27 05:49:10;;;;;;;12.97;11.20;;;13.70;99.90;;;;;;5011520;28;20505;-91
2021/09/27 05:51:41;;;;;;;13.80;12.40;;;13.90;99.90;;;;;;5014268;28;20823;-88
2021/09/27 05:54:18;;;;;;;13.60;12.10;;;14.10;99.90;;;;;;5015295;28;20804;-91
2021/09/27 05:56:56;;;;;;;12.47;11.00;;;14.40;99.90;;;;;;5017943;28;20471;-89
2021/09/27 05:59:31;;;;;;;15.80;12.10;;;14.60;99.90;;;;;;5013019;28;20817;-88
2021/09/27 06:02:10;;;;;;;14.60;12.27;;;14.70;99.90;;;;;;5018219;28;20456;-91
2021/09/27 06:04:51;;;;;;;12.73;11.00;;;14.80;99.90;;;;;;5016632;28;20452;-87
2021/09/27 06:07:28;;;;;;;13.73;12.23;;;14.90;99.90;;;;;;5018094;28;20452;-89
2021/09/27 06:10:03;;;;;;;16.80;11.73;;;15.10;99.90;;;;;;5013650;28;20448;-91
2021/09/27 06:12:37;;;;;;;11.50;10.30;;;15.20;99.90;;;;;;4999699;28;20500;-92
2021/09/27 06:15:10;;;;;;;11.57;10.37;;;15.60;99.90;;;;;;5010937;28;20486;-93
2021/09/27 06:17:55;;;;;;;11.83;10.73;;;15.50;99.90;;;;;;5010966;28;20448;-90
2021/09/27 06:20:33;;;;;;;11.57;10.47;;;15.70;99.90;;;;;;4994423;28;20442;-87
2021/09/27 06:23:13;;;;;;;10.30;9.30;;;15.70;99.90;;;;;;4996725;28;20529;-88
2021/09/27 06:25:54;;;;;;;18.00;9.10;;;16.00;99.90;;;;;;4995450;28;20461;-88
2021/09/27 06:28:31;;;;;;;10.97;8.23;;;16.20;99.90;;;;;;4997939;28;20450;-88
2021/09/27 06:31:05;;;;;;;10.60;8.90;;;16.30;99.90;;;;;;5001767;28;20452;-92
2021/09/27 06:33:38;;;;;;;10.03;9.03;;;16.60;99.90;;;;;;5004788;28;20489;-88
2021/09/27 06:36:08;;;;;;;8.63;7.70;;;17.00;99.90;;;;;;5014601;28;20498;-91
2021/09/27 06:38:40;;;;;;;9.53;8.53;;;17.30;99.90;;;;;;5019092;28;20472;-93
2021/09/27 06:41:11;;;;;;;8.50;7.63;;;17.40;99.90;;;;;;5014625;28;20500;-91
2021/09/27 06:43:39;;;;;;;10.00;9.10;;;;;;;;;;5010467;28;20502;-92
2021/09/27 06:46:06;;;;;;;9.37;8.00;;;;;;;;;;5017416;28;21103;-92
2021/09/27 06:48:35;;;;;;;8.50;7.70;;;17.20;99.90;;;;;;5003800;28;20442;-92
2021/09/27 06:51:02;;;;;;;8.53;7.73;;;;;;;;;;4993011;28;20493;-92
2021/09/27 06:53:30;;;;;;;8.20;7.43;;;;;;;;;;4999784;28;20473;-88
2021/09/27 06:55:57;;;;;;;9.17;8.33;;;;;;;;;;4994457;28;20469;-90
2021/09/27 06:58:24;;;;;;;9.93;8.10;;;;;;;;;;5000822;28;20465;-90
2021/09/27 07:00:52;;;;;;;9.03;7.87;;;17.50;99.90;;;;;;5023814;28;20431;-89
2021/09/27 07:03:19;;;;;;;8.33;7.50;;;;;;;;;;4985964;28;20451;-89
2021/09/27 07:05:47;;;;;;;7.70;7.00;;;17.40;99.90;;;;;;5017795;28;20460;-90
2021/09/27 07:08:15;;;;;;;7.80;7.10;;;;;;;;;;5017367;28;20925;-88
2021/09/27 07:10:43;;;;;;;8.30;7.50;;;;;;;;;;5005545;28;20465;-91
2021/09/27 07:13:11;;;;;;;7.67;6.97;;;;;;;;;;4979218;28;20501;-89
2021/09/27 07:15:42;;;;;;;8.10;7.40;;;;;;;;;;5080611;23;20566;-93
2021/09/27 07:18:09;;;;;;;10.63;5.93;;;;;;;;;;5038020;28;20466;-95
2021/09/27 07:20:36;;;;;;;8.00;7.20;;;;;;;;;;5041914;28;20967;-95
2021/09/27 07:23:06;;;;;;;7.93;7.20;;;18.10;99.90;;;;;;5044734;28;20771;-93
2021/09/27 07:25:35;;;;;;;7.57;6.77;;;17.90;99.90;;;;;;5032400;28;20479;-93
2021/09/27 07:28:03;;;;;;;11.97;7.20;;;;;;;;;;5042449;28;20454;-94
2021/09/27 07:30:30;;;;;;;7.83;7.03;;;;;;;;;;5040152;28;20498;-88
2021/09/27 07:32:58;;;;;;;7.57;6.30;;;;;;;;;;5035947;28;20921;-90
2021/09/27 07:35:27;;;;;;;6.63;6.03;;;18.40;99.90;;;;;;5032050;28;20454;-89
2021/09/27 07:37:54;;;;;;;8.00;7.30;;;;;;;;;;5032295;28;20456;-90
2021/09/27 07:40:28;;;;;;;8.47;6.20;;;18.80;99.90;;;;;;5051958;28;20470;-95
2021/09/27 07:42:55;;;;;;;6.87;6.27;;;;;;;;;;5047055;28;20467;-93
2021/09/27 07:45:26;;;;;;;8.40;6.63;;;19.60;99.90;;;;;;5042709;28;20451;-95
2021/09/27 07:47:53;;;;;;;6.80;6.20;;;;;;;;;;5040084;28;20459;-96
2021/09/27 07:50:20;;;;;;;7.57;6.97;;;;;;;;;;5038125;28;20502;-92
2021/09/27 07:52:48;;;;;;;6.53;5.93;;;;;;;;;;5037998;28;21021;-92
2021/09/27 07:55:15;;;;;;;7.20;4.90;;;19.50;99.90;;;;;;5035986;28;20431;-91
2021/09/27 07:57:44;;;;;;;6.70;6.03;;;;;;;;;;5027271;28;20931;-90
2021/09/27 08:00:15;;;;;;;6.20;5.50;;;19.20;99.90;;;;;;5041510;28;20451;-90
2021/09/27 08:02:42;;;;;;;8.20;6.47;;;;;;;;;;5041212;28;20456;-92
2021/09/27 08:05:11;;;;;;;6.40;5.53;;;20.30;99.90;;;;;;5050938;28;20455;-94
2021/09/27 08:07:42;;;;;;;6.63;6.03;;;;;;;;;;5045714;28;20463;-92
2021/09/27 08:10:12;;;;;;;6.87;6.27;;;21.40;99.90;;;;;;5009756;28;20443;-91
2021/09/27 08:12:39;;;;;;;6.80;5.73;;;;;;;;;;5020701;28;20516;-92
2021/09/27 08:15:13;;;;;;;4.93;4.37;;;21.70;99.90;;;;;;5023335;28;20480;-91
2021/09/27 08:17:40;;;;;;;6.37;5.77;;;;;;;;;;5016962;28;20460;-93
2021/09/27 08:20:09;;;;;;;6.13;5.53;;;20.50;99.90;;;;;;5020264;28;20460;-90
2021/09/27 08:22:36;;;;;;;5.00;4.60;;;;;;;;;;5021159;28;20460;-93
2021/09/27 08:25:11;;;;;;;4.77;4.37;;;;;;;;;;5021066;28;20452;-95
2021/09/27 08:32:54;;;;;;;6.00;5.17;;;;;;;;;;5094673;28;20481;-91
2021/09/27 08:35:22;;;;;;;4.93;4.53;;;;;;;;;;5073924;28;20467;-90
2021/09/27 08:37:50;;;;;;;4.33;4.03;;;;;;;;;;5075362;28;20450;-90
2021/09/27 08:40:33;;;;;;;4.90;4.10;;;22.50;99.90;;;;;;5083469;28;21023;-89
2021/09/27 08:43:11;;;;;;;5.87;5.27;;;22.30;99.90;;;;;;5077562;28;20436;-89
2021/09/27 08:45:39;;;;;;;4.33;3.93;;;;;;;;;;5069805;28;20454;-90
2021/09/27 08:48:20;;;;;;;4.27;3.90;;;22.80;99.90;;;;;;5074054;28;20818;-90
2021/09/27 08:50:47;;;;;;;3.90;3.60;;;;;;;;;;5074864;28;20446;-93
2021/09/27 08:53:22;;;;;;;4.50;4.10;;;22.10;99.90;;;;;;5076704;28;20487;-94
2021/09/27 08:55:50;;;;;;;4.43;4.03;;;22.60;99.90;;;;;;5070543;28;20453;-92
2021/09/27 08:58:26;;;;;;;3.30;3.00;;;22.80;99.90;;;;;;5071980;28;20442;-87
2021/09/27 09:00:59;;;;;;;3.93;3.40;;;21.60;99.90;;;;;;5063981;28;20433;-89
2021/09/27 09:03:32;;;;;;;4.43;4.00;;;22.20;99.90;;;;;;5076529;28;20452;-92
2021/09/27 09:06:02;;;;;;;3.80;3.50;;;;;;;;;;5077064;28;20469;-90
2021/09/27 09:08:36;;;;;;;4.57;3.80;;;22.50;99.90;;;;;;5074932;28;20465;-93
2021/09/27 09:11:08;;;;;;;4.13;3.80;;;22.40;99.90;;;;;;5082787;22;20490;-91
2021/09/27 09:13:41;;;;;;;5.43;4.33;;;22.60;99.90;;;;;;5052385;28;20479;-89
2021/09/27 09:16:15;;;;;;;4.30;3.63;;;23.00;99.90;;;;;;5074713;22;20490;-89
2021/09/27 09:18:49;;;;;;;4.90;4.50;;;23.70;99.90;;;;;;5096852;22;20490;-91
2021/09/27 09:21:21;;;;;;;6.63;4.17;;;24.20;99.90;;;;;;5079069;28;20933;-92
2021/09/27 09:23:54;;;;;;;3.93;3.63;;;24.10;99.90;;;;;;5089534;22;20470;-89
2021/09/27 09:26:26;;;;;;;4.37;3.97;;;24.90;99.90;;;;;;5059586;22;20483;-89
2021/09/27 09:28:57;;;;;;;4.90;3.40;;;24.70;99.90;;;;;;5069922;23;20490;-94
2021/09/27 09:31:26;;;;;;;4.30;3.90;;;24.30;99.90;;;;;;5130393;23;20487;-90
2021/09/27 09:33:58;;;;;;;8.57;5.10;;;23.20;99.90;;;;;;5081294;22;20489;-90
2021/09/27 09:36:37;;;;;;;4.00;3.60;;;23.00;99.90;;;;;;5074996;22;20487;-90
2021/09/27 09:39:13;;;;;;;4.23;3.83;;;23.80;99.90;;;;;;5031979;28;20447;-90
2021/09/27 09:41:44;;;;;;;3.67;3.27;;;24.30;99.90;;;;;;5033098;28;20439;-89
2021/09/27 09:44:22;;;;;;;3.37;3.07;;;25.00;99.90;;;;;;5031380;28;20428;-90
2021/09/27 09:46:59;;;;;;;4.00;3.70;;;24.30;99.90;;;;;;5045932;23;20487;-92
2021/09/27 09:49:30;;;;;;;4.20;3.77;;;23.70;99.90;;;;;;5041851;28;20462;-93
2021/09/27 09:52:02;;;;;;;4.30;4.00;;;23.20;99.90;;;;;;5046371;28;20560;-92
2021/09/27 09:54:38;;;;;;;4.30;3.90;;;23.60;99.90;;;;;;5054342;28;20581;-90
2021/09/27 09:57:14;;;;;;;3.93;3.63;;;24.30;99.90;;;;;;5067121;23;20482;-90
2021/09/27 09:59:43;;;;;;;4.93;3.90;;;24.70;99.90;;;;;;5050034;28;20450;-90
2021/09/27 10:02:20;;;;;;;3.20;3.00;;;25.00;99.90;;;;;;5056488;28;20454;-92
2021/09/27 10:04:53;;;;;;;4.00;3.60;;;24.70;99.90;;;;;;5057441;28;20458;-92
2021/09/27 10:07:27;;;;;;;3.53;2.83;;;23.70;99.90;;;;;;5053256;28;20454;-94
2021/09/27 10:09:57;;;;;;;3.10;2.90;;;23.30;99.90;;;;;;5048410;28;20454;-93
2021/09/27 10:12:45;;;;;;;3.20;3.00;;;23.40;99.90;;;;;;5053576;28;20825;-93
2021/09/27 10:15:17;;;;;;;2.90;2.70;;;23.90;99.90;;;;;;5043439;28;20467;-90
2021/09/27 10:17:45;;;;;;;2.87;2.63;;;;;;;;;;5045237;28;20436;-93
2021/09/27 10:20:18;;;;;;;2.80;2.60;;;24.50;99.90;;;;;;5046446;28;20451;-90
2021/09/27 10:22:53;;;;;;;2.63;2.43;;;24.60;99.50;;;;;;5055657;22;20493;-93
2021/09/27 10:25:29;;;;;;;2.73;2.50;;;24.40;99.60;;;;;;5043262;28;20458;-90
2021/09/27 10:27:58;;;;;;;4.30;2.60;;;;;;;;;;5049340;28;20447;-90
2021/09/27 10:30:35;;;;;;;3.20;2.90;;;23.80;99.90;;;;;;5042673;28;20506;-91
2021/09/27 10:33:15;;;;;;;2.20;2.10;;;23.70;98.20;;;;;;5055512;22;20562;-91
2021/09/27 10:35:53;;;;;;;2.37;2.10;;;22.50;99.90;;;;;;5058655;28;20500;-92
2021/09/27 10:38:25;;;;;;;2.30;1.83;;;21.50;99.90;;;;;;5054380;28;20470;-92
2021/09/27 10:40:53;;;;;;;3.67;2.37;;;22.50;99.90;;;;;;5054917;28;20945;-91
2021/09/27 10:43:23;;;;;;;2.57;2.37;;;23.60;99.90;;;;;;5057814;28;20929;-90
2021/09/27 10:45:53;;;;;;;2.60;2.40;;;23.20;99.80;;;;;;5054959;28;20458;-92
2021/09/27 10:48:20;;;;;;;2.60;2.40;;;;;;;;;;5057021;28;20442;-90
2021/09/27 10:50:55;;;;;;;2.07;1.93;;;21.90;99.90;;;;;;5055831;28;20443;-91
2021/09/27 10:53:27;;;;;;;2.80;2.60;;;22.60;99.90;;;;;;5058271;28;20468;-92
2021/09/27 10:56:02;;;;;;;2.50;2.30;;;23.70;99.90;;;;;;5056395;28;20957;-92
2021/09/27 10:58:39;;;;;;;2.30;2.10;;;23.50;99.90;;;;;;5053012;28;20438;-90
2021/09/27 11:01:07;;;;;;;2.50;2.17;;;23.70;99.90;;;;;;5056743;28;20446;-93
2021/09/27 11:03:38;;;;;;;2.63;2.43;;;23.80;99.60;;;;;;5054957;28;20458;-92
2021/09/27 11:06:24;;;;;;;2.93;2.60;;;23.90;99.40;;;;;;5060948;28;20443;-91
2021/09/27 11:09:00;;;;;;;3.50;2.50;;;23.80;99.00;;;;;;5068241;28;20453;-92
2021/09/27 11:11:48;;;;;;;2.60;2.40;;;24.50;99.90;;;;;;5073204;28;20455;-93
2021/09/27 11:14:32;;;;;;;5.30;2.00;;;24.10;99.90;;;;;;5059322;28;20490;-92
2021/09/27 11:17:25;;;;;;;2.67;2.47;;;24.90;97.00;;;;;;5058173;28;20461;-93
2021/09/27 11:20:29;;;;;;;3.10;2.80;;;25.70;97.10;;;;;;5059216;28;20443;-90
2021/09/27 11:23:21;;;;;;;2.40;2.20;;;25.00;99.70;;;;;;5059478;28;20439;-93
2021/09/27 11:25:50;;;;;;;2.47;2.23;;;24.40;98.20;;;;;;5055554;28;20466;-92
2021/09/27 11:28:43;;;;;;;2.80;2.40;;;23.90;98.30;;;;;;5055165;28;20787;-91
2021/09/27 11:31:23;;;;;;;2.30;2.10;;;24.20;98.40;;;;;;5055942;28;20489;-92
2021/09/27 11:33:52;;;;;;;2.90;2.50;;;23.60;98.50;;;;;;5055792;28;20489;-91
2021/09/27 11:36:54;;;;;;;2.50;2.30;;;22.70;99.30;;;;;;5054900;28;20458;-91
2021/09/27 11:39:29;;;;;;;2.37;1.93;;;22.10;99.90;;;;;;5056156;28;20446;-94
2021/09/27 11:42:49;;;;;;;2.70;2.50;;;22.30;99.90;;;;;;5056617;28;20461;-92
2021/09/27 11:45:46;;;;;;;2.30;2.07;;;22.50;99.90;;;;;;5055310;28;20472;-91
2021/09/27 11:48:40;;;;;;;2.20;1.73;;;;;;;;;;5053414;28;20455;-91
2021/09/27 11:51:21;;;;;;;2.80;2.13;;;22.50;99.90;;;;;;5056638;28;20529;-94
2021/09/27 11:54:03;;;;;;;2.40;1.93;;;22.30;99.90;;;;;;5056179;28;20486;-92
2021/09/27 11:56:40;;;;;;;2.40;2.17;;;22.70;99.90;;;;;;5061824;28;20458;-92
2021/09/27 11:59:10;;;;;;;2.47;2.10;;;22.90;99.90;;;;;;5062169;28;20450;-91
2021/09/27 12:01:48;;;;;;;2.13;1.50;;;22.70;99.90;;;;;;5061293;28;20446;-93
2021/09/27 12:04:24;;;;;;;2.70;2.50;;;22.60;99.90;;;;;;5061425;28;20447;-92
2021/09/27 12:06:57;;;;;;;2.83;2.63;;;22.50;99.90;;;;;;5060449;28;20446;-92
2021/09/27 12:09:31;;;;;;;3.17;2.40;;;22.60;99.90;;;;;;5061632;28;20458;-92
2021/09/27 12:12:01;;;;;;;5.07;2.27;;;;;;;;;;5061794;28;20800;-91
2021/09/27 12:14:38;;;;;;;4.90;2.50;;;22.40;99.90;;;;;;5071785;28;20485;-92
2021/09/27 12:17:10;;;;;;;3.20;2.93;;;22.40;99.90;;;;;;5059624;28;20445;-91
2021/09/27 12:19:46;;;;;;;3.03;2.83;;;;;;;;;;5057464;28;20431;-91
2021/09/27 12:22:19;;;;;;;2.53;2.23;;;22.50;99.90;;;;;;5065002;28;20451;-95
2021/09/27 12:24:47;;;;;;;3.20;2.60;;;;;;;;;;5067880;28;20474;-92
2021/09/27 12:27:19;;;;;;;3.10;2.30;;;23.20;99.90;;;;;;5069686;28;20457;-94
2021/09/27 12:29:52;;;;;;;3.43;2.30;;;22.90;99.90;;;;;;5059110;28;20541;-90
2021/09/27 12:32:27;;;;;;;2.30;2.10;;;22.80;99.90;;;;;;5057077;28;21015;-90
2021/09/27 12:34:54;;;;;;;3.40;2.27;;;;;;;;;;5055356;28;21103;-89
2021/09/27 12:37:22;;;;;;;2.90;2.60;;;22.80;99.90;;;;;;5062344;28;20439;-91
2021/09/27 12:39:49;;;;;;;3.03;2.70;;;;;;;;;;5070615;28;20522;-95
2021/09/27 12:42:20;;;;;;;2.43;2.27;;;;;;;;;;5062469;28;20463;-92
2021/09/27 12:44:52;;;;;;;2.50;2.30;;;22.90;99.90;;;;;;5055886;28;20453;-93
2021/09/27 12:47:20;;;;;;;2.87;2.20;;;;;;;;;;5056510;28;20470;-92
2021/09/27 12:49:51;;;;;;;4.13;2.40;;;22.40;99.90;;;;;;5056480;28;20434;-92
2021/09/27 12:52:30;;;;;;;2.70;2.50;;;22.40;99.90;;;;;;5056786;28;20933;-93
2021/09/27 12:54:57;;;;;;;4.60;2.37;;;;;;;;;;5058194;28;20486;-89
2021/09/27 12:57:47;;;;;;;2.70;2.50;;;22.20;99.90;;;;;;5056309;28;20463;-93
2021/09/27 13:00:21;;;;;;;2.53;2.20;;;22.60;99.90;;;;;;5058306;28;20458;-93
2021/09/27 13:02:50;;;;;;;1.97;1.87;;;22.80;99.90;;;;;;5057600;28;20475;-94
2021/09/27 13:05:23;;;;;;;2.10;1.90;;;;;;;;;;5062303;28;20473;-93
2021/09/27 13:07:54;;;;;;;2.67;2.30;;;;;;;;;;5069391;28;20518;-95
2021/09/27 13:10:35;;;;;;;3.17;2.17;;;22.30;99.90;;;;;;5072424;28;20465;-94
2021/09/27 13:13:13;;;;;;;2.37;2.17;;;21.80;99.90;;;;;;5137720;22;20549;-93
2021/09/27 13:15:50;;;;;;;2.20;1.80;;;21.80;99.90;;;;;;5108260;28;20945;-92
2021/09/27 13:18:29;;;;;;;2.20;2.00;;;;;;;;;;5104776;28;20467;-93
2021/09/27 13:21:02;;;;;;;3.03;2.10;;;;;;;;;;5101218;28;20452;-93
2021/09/27 13:23:36;;;;;;;2.07;1.90;;;;;;;;;;5100711;28;20493;-94
2021/09/27 13:26:06;;;;;;;3.50;1.80;;;21.50;99.90;;;;;;5100131;28;20544;-93
2021/09/27 13:28:38;;;;;;;2.80;1.57;;;21.40;99.90;;;;;;5099539;28;20437;-94
2021/09/27 13:31:08;;;;;;;2.57;1.83;;;;;;;;;;5097665;28;20452;-93
2021/09/27 13:33:41;;;;;;;1.97;1.77;;;21.70;99.90;;;;;;5096724;28;20453;-94
2021/09/27 13:36:13;;;;;;;1.70;1.60;;;21.70;99.90;;;;;;5100157;28;20503;-94
2021/09/27 13:38:45;;;;;;;2.13;1.63;;;21.70;99.90;;;;;;5092976;28;20459;-94
2021/09/27 13:41:19;;;;;;;2.10;2.00;;;21.80;99.90;;;;;;5098246;28;20460;-92
2021/09/27 13:44:14;;;;;;;2.90;2.70;;;;;;;;;;5097548;28;20440;-94
2021/09/27 13:46:54;;;;;;;3.23;2.93;;;;;;;;;;5098094;28;20457;-94